Time;durP1;ratioP1;P1;durP2;ratioP2;P2;SDS_P1;SDS_P2;PMS_P1;PMS_P2;Temp;Humidity;BMP_temperature;BMP_pressure;BME280_temperature;BME280_humidity;BME280_pressure;Samples;Min_cycle;Max_cycle;Signal;HPM_P1;HPM_P2
2023/05/19 00:02:07;;;;;;;2.33;1.15;;;15.50;66.50;;;;;;4132975;28;20037;-48
2023/05/19 00:04:32;;;;;;;2.17;1.10;;;15.50;66.60;;;;;;4125289;28;20051;-47
2023/05/19 00:06:54;;;;;;;;;;;15.60;66.60;;;;;;4130653;28;20084;-50
2023/05/19 00:09:17;;;;;;;1.52;0.93;;;15.60;66.60;;;;;;4129525;28;19909;-47
2023/05/19 00:11:40;;;;;;;1.38;0.90;;;15.60;66.50;;;;;;4128480;28;20427;-48
2023/05/19 00:14:04;;;;;;;3.10;1.00;;;15.60;66.30;;;;;;4103496;28;20059;-50
2023/05/19 00:16:28;;;;;;;1.20;1.00;;;15.60;66.20;;;;;;4105774;28;20128;-47
2023/05/19 00:18:52;;;;;;;1.02;0.93;;;15.60;66.10;;;;;;4130446;28;20061;-47
2023/05/19 00:21:14;;;;;;;2.60;1.17;;;15.70;66.10;;;;;;4126889;28;20066;-45
2023/05/19 00:23:37;;;;;;;1.27;0.90;;;15.70;66.70;;;;;;4127091;28;20045;-49
2023/05/19 00:25:59;;;;;;;1.15;0.88;;;15.70;66.00;;;;;;4127820;28;20365;-49
2023/05/19 00:28:22;;;;;;;2.28;1.25;;;15.70;66.00;;;;;;4121680;28;20558;-48
2023/05/19 00:30:44;;;;;;;2.13;1.15;;;15.70;65.80;;;;;;4137225;28;20113;-47
2023/05/19 00:33:07;;;;;;;1.30;0.80;;;15.70;65.80;;;;;;4116010;28;20047;-47
2023/05/19 00:35:29;;;;;;;1.08;0.77;;;15.70;65.80;;;;;;4125320;28;20405;-48
2023/05/19 00:37:51;;;;;;;0.85;0.82;;;15.70;65.80;;;;;;4125242;28;20038;-47
2023/05/19 00:40:14;;;;;;;0.70;0.70;;;15.70;65.70;;;;;;4128924;28;20489;-54
2023/05/19 00:42:37;;;;;;;3.58;1.00;;;15.80;65.70;;;;;;4123549;28;20042;-53
2023/05/19 00:45:00;;;;;;;2.75;1.40;;;15.80;65.80;;;;;;4127702;28;20085;-47
2023/05/19 00:47:22;;;;;;;2.30;1.00;;;15.80;65.70;;;;;;4121985;28;20038;-55
2023/05/19 00:49:44;;;;;;;1.10;0.80;;;15.80;65.70;;;;;;4120405;28;20038;-55
2023/05/19 00:52:07;;;;;;;2.38;0.80;;;15.80;65.60;;;;;;4123490;28;20043;-51
2023/05/19 00:54:30;;;;;;;1.95;0.75;;;15.90;65.60;;;;;;4119970;28;20039;-57
2023/05/19 00:56:57;;;;;;;1.35;0.95;;;15.80;65.40;;;;;;4108049;28;20098;-50
2023/05/19 00:59:19;;;;;;;1.92;1.13;;;15.90;65.40;;;;;;4117312;28;20046;-54
2023/05/19 01:01:42;;;;;;;1.45;0.80;;;15.90;65.40;;;;;;4123714;28;20046;-50
2023/05/19 01:04:08;;;;;;;1.42;0.85;;;15.90;65.50;;;;;;4120662;28;20077;-51
2023/05/19 01:06:31;;;;;;;0.98;0.75;;;15.90;65.30;;;;;;4119667;28;20066;-57
2023/05/19 01:08:54;;;;;;;1.13;0.68;;;16.00;65.40;;;;;;4116952;28;20050;-50
2023/05/19 01:11:17;;;;;;;2.15;0.75;;;16.00;65.30;;;;;;4116791;28;20521;-49
2023/05/19 01:13:39;;;;;;;1.35;0.82;;;16.00;65.30;;;;;;4123700;28;20054;-54
2023/05/19 01:16:24;;;;;;;1.20;0.80;;;16.00;65.20;;;;;;4118988;28;20074;-51
2023/05/19 01:18:57;;;;;;;0.98;0.70;;;16.00;65.30;;;;;;4119180;28;20034;-50
2023/05/19 01:21:26;;;;;;;2.55;1.10;;;16.00;65.30;;;;;;4117747;28;20073;-49
2023/05/19 01:24:21;;;;;;;2.05;0.98;;;16.10;65.20;;;;;;4125358;28;20035;-47
2023/05/19 01:27:05;;;;;;;1.23;0.80;;;16.10;64.90;;;;;;4124497;28;20133;-46
2023/05/19 01:29:48;;;;;;;1.38;0.80;;;16.20;64.80;;;;;;4123371;28;20049;-48
2023/05/19 01:32:13;;;;;;;1.27;0.70;;;16.20;65.00;;;;;;4118679;28;20062;-49
2023/05/19 01:34:39;;;;;;;6.55;1.13;;;16.20;65.20;;;;;;4121890;28;20053;-45
2023/05/19 01:37:02;;;;;;;2.80;0.80;;;16.20;65.10;;;;;;4120926;28;20043;-45
2023/05/19 01:39:25;;;;;;;1.08;0.65;;;16.20;65.00;;;;;;4118949;28;20057;-50
2023/05/19 01:41:48;;;;;;;2.03;0.60;;;16.20;65.10;;;;;;4120296;28;20099;-58
2023/05/19 01:44:11;;;;;;;0.50;0.50;;;16.30;65.20;;;;;;4114560;28;20092;-54
2023/05/19 01:46:34;;;;;;;1.00;0.60;;;16.30;65.30;;;;;;4118162;28;20062;-54
2023/05/19 01:48:58;;;;;;;0.90;0.60;;;16.30;65.20;;;;;;4117106;28;20510;-49
2023/05/19 01:51:20;;;;;;;1.80;0.70;;;16.30;65.10;;;;;;4121284;28;20058;-48
2023/05/19 01:53:43;;;;;;;2.15;0.70;;;16.30;65.10;;;;;;4122524;28;20051;-53
2023/05/19 01:56:06;;;;;;;0.90;0.50;;;16.30;65.00;;;;;;4121886;28;20038;-53
2023/05/19 01:58:44;;;;;;;1.02;0.50;;;16.40;65.10;;;;;;4126695;28;20042;-52
2023/05/19 02:01:29;;;;;;;1.30;0.50;;;16.40;64.90;;;;;;4120262;28;20030;-48
2023/05/19 02:03:52;;;;;;;0.30;0.30;;;16.40;64.90;;;;;;4117611;28;20042;-48
2023/05/19 02:06:42;;;;;;;0.70;0.55;;;16.40;64.90;;;;;;4120034;28;20031;-50
2023/05/19 02:09:08;;;;;;;0.50;0.50;;;16.50;64.90;;;;;;4122827;28;20050;-49
2023/05/19 02:12:08;;;;;;;0.95;0.70;;;16.50;65.00;;;;;;4125229;28;20087;-51
2023/05/19 02:14:46;;;;;;;2.75;0.50;;;16.50;64.90;;;;;;4083089;28;20050;-53
2023/05/19 02:17:10;;;;;;;0.50;0.50;;;16.50;64.80;;;;;;4117768;28;20096;-55
2023/05/19 02:19:36;;;;;;;0.98;0.60;;;16.50;64.70;;;;;;4110914;28;20499;-46
2023/05/19 02:21:58;;;;;;;0.85;0.60;;;16.50;64.80;;;;;;4121947;28;20049;-46
2023/05/19 02:24:21;;;;;;;2.25;0.60;;;16.60;64.70;;;;;;4118001;28;20034;-48
2023/05/19 02:26:44;;;;;;;0.68;0.50;;;16.60;65.40;;;;;;4117814;28;20042;-47
2023/05/19 02:29:06;;;;;;;1.50;0.60;;;16.60;64.60;;;;;;4120900;28;20113;-47
2023/05/19 02:31:28;;;;;;;0.40;0.40;;;16.70;64.60;;;;;;4121836;28;20517;-47
2023/05/19 02:33:51;;;;;;;0.63;0.52;;;16.70;64.60;;;;;;4114180;28;20059;-50
2023/05/19 02:36:13;;;;;;;0.57;0.50;;;16.70;64.40;;;;;;4132919;28;20066;-56
2023/05/19 02:38:36;;;;;;;2.95;0.88;;;16.70;63.80;;;;;;4104771;28;20053;-51
2023/05/19 02:40:58;;;;;;;2.47;0.73;;;16.70;64.00;;;;;;4115525;28;20458;-54
2023/05/19 02:43:21;;;;;;;5.15;1.13;;;16.70;63.70;;;;;;4113331;28;20058;-58
2023/05/19 02:45:43;;;;;;;1.60;0.52;;;16.70;63.50;;;;;;4117379;28;20233;-63
2023/05/19 02:48:06;;;;;;;1.77;0.77;;;17.20;63.30;;;;;;4115675;28;20414;-53
2023/05/19 02:50:28;;;;;;;0.60;0.50;;;18.10;61.60;;;;;;4122897;28;20113;-57
2023/05/19 02:52:52;;;;;;;1.10;0.82;;;19.10;59.40;;;;;;4125748;28;20557;-57
2023/05/19 02:55:16;;;;;;;;;;;19.90;57.70;;;;;;4116144;28;20030;-55
2023/05/19 02:57:38;;;;;;;2.78;0.70;;;20.60;56.30;;;;;;4128391;28;19921;-59
2023/05/19 03:00:01;;;;;;;0.50;0.40;;;21.30;55.00;;;;;;4122524;28;20066;-49
2023/05/19 03:02:23;;;;;;;1.33;0.85;;;21.80;54.00;;;;;;4120225;28;20445;-59
2023/05/19 03:04:46;;;;;;;1.58;0.60;;;21.80;53.80;;;;;;4124566;28;20536;-53
2023/05/19 03:07:09;;;;;;;3.45;0.90;;;21.50;54.60;;;;;;4118565;28;20066;-53
2023/05/19 03:09:31;;;;;;;2.03;0.45;;;21.10;55.60;;;;;;4112784;28;20031;-55
2023/05/19 03:11:54;;;;;;;0.50;0.50;;;20.70;56.20;;;;;;4111539;28;20050;-55
2023/05/19 03:14:17;;;;;;;0.70;0.52;;;20.50;56.80;;;;;;4111202;28;20042;-59
2023/05/19 03:16:40;;;;;;;4.68;0.82;;;20.30;57.40;;;;;;4116638;28;20231;-59
2023/05/19 03:19:03;;;;;;;0.50;0.50;;;20.10;57.80;;;;;;4123012;28;20034;-58
2023/05/19 03:21:25;;;;;;;3.20;0.60;;;19.90;58.30;;;;;;4123537;28;20043;-58
2023/05/19 03:23:48;;;;;;;1.40;0.57;;;19.80;58.60;;;;;;4115468;28;20074;-54
2023/05/19 03:26:10;;;;;;;1.02;0.55;;;19.70;58.90;;;;;;4127081;28;20030;-52
2023/05/19 03:28:33;;;;;;;3.92;1.15;;;19.60;59.10;;;;;;4124686;28;20194;-58
2023/05/19 03:30:55;;;;;;;2.22;0.50;;;19.60;59.40;;;;;;4117145;28;20036;-56
2023/05/19 03:33:18;;;;;;;0.50;0.50;;;19.50;59.40;;;;;;4119956;28;20491;-58
2023/05/19 03:35:40;;;;;;;0.40;0.40;;;19.50;59.50;;;;;;4117914;28;20042;-52
2023/05/19 03:38:03;;;;;;;0.77;0.40;;;19.50;59.40;;;;;;4114439;28;20034;-56
2023/05/19 03:40:25;;;;;;;0.55;0.40;;;19.50;59.60;;;;;;4119865;28;20515;-58
2023/05/19 03:42:48;;;;;;;0.40;0.40;;;19.50;59.60;;;;;;4121149;28;20060;-55
2023/05/19 03:45:10;;;;;;;0.68;0.43;;;19.50;59.60;;;;;;4121312;28;20050;-56
2023/05/19 03:47:33;;;;;;;1.15;0.40;;;19.50;59.60;;;;;;4105458;28;20050;-50
2023/05/19 03:49:55;;;;;;;0.40;0.40;;;19.50;59.60;;;;;;4115567;28;20039;-58
2023/05/19 03:52:17;;;;;;;1.17;0.40;;;19.60;59.70;;;;;;4119802;28;20041;-58
2023/05/19 03:54:41;;;;;;;2.40;0.60;;;19.60;59.70;;;;;;4118025;28;20039;-56
2023/05/19 03:57:04;;;;;;;0.32;0.32;;;19.60;59.60;;;;;;4116200;28;20073;-57
2023/05/19 03:59:26;;;;;;;0.40;0.40;;;19.60;59.60;;;;;;4110105;28;20042;-55
2023/05/19 04:01:50;;;;;;;0.40;0.40;;;19.60;59.50;;;;;;4131980;28;20153;-57
2023/05/19 04:04:12;;;;;;;0.57;0.30;;;19.70;59.60;;;;;;4122476;28;20043;-54
2023/05/19 04:06:35;;;;;;;0.40;0.40;;;19.70;59.50;;;;;;4124104;28;20042;-55
2023/05/19 04:08:57;;;;;;;0.85;0.50;;;19.80;59.30;;;;;;4124826;28;20101;-53
2023/05/19 04:11:20;;;;;;;0.70;0.60;;;19.90;59.20;;;;;;4121226;28;20066;-48
2023/05/19 04:13:42;;;;;;;0.40;0.38;;;19.90;59.10;;;;;;4132906;28;20053;-51
2023/05/19 04:16:05;;;;;;;0.40;0.40;;;19.90;59.00;;;;;;4121124;28;20038;-54
2023/05/19 04:18:27;;;;;;;1.35;0.40;;;20.00;59.00;;;;;;4119679;28;20541;-57
2023/05/19 04:20:50;;;;;;;0.50;0.35;;;20.00;58.90;;;;;;4107977;28;20058;-59
2023/05/19 04:23:12;;;;;;;0.50;0.40;;;20.10;58.90;;;;;;4121395;28;20038;-54
2023/05/19 04:25:35;;;;;;;0.30;0.30;;;20.10;58.80;;;;;;4132939;28;20401;-58
2023/05/19 04:27:57;;;;;;;0.38;0.38;;;20.20;58.80;;;;;;4117526;28;20045;-58
2023/05/19 04:30:21;;;;;;;0.93;0.40;;;20.30;58.60;;;;;;4117531;28;20134;-56
2023/05/19 04:32:43;;;;;;;0.73;0.30;;;20.30;58.60;;;;;;4121159;28;20054;-55
2023/05/19 04:35:06;;;;;;;0.32;0.32;;;20.40;58.50;;;;;;4117843;28;20564;-54
2023/05/19 04:37:28;;;;;;;0.47;0.40;;;20.40;58.50;;;;;;4116937;28;20388;-51
2023/05/19 04:39:51;;;;;;;0.30;0.30;;;20.40;58.20;;;;;;4117096;28;20611;-53
2023/05/19 04:42:17;;;;;;;0.30;0.30;;;20.50;58.20;;;;;;4126850;28;20034;-61
2023/05/19 04:44:40;;;;;;;0.75;0.30;;;20.60;57.70;;;;;;4119893;28;20046;-57
2023/05/19 04:47:04;;;;;;;0.30;0.30;;;20.60;57.90;;;;;;4117534;28;20038;-57
2023/05/19 04:49:27;;;;;;;5.43;0.60;;;20.70;58.10;;;;;;4124344;28;20050;-58
2023/05/19 04:51:51;;;;;;;0.40;0.40;;;20.70;57.90;;;;;;4117716;28;20490;-60
2023/05/19 04:54:13;;;;;;;0.40;0.40;;;20.80;57.90;;;;;;4120096;28;20119;-58
2023/05/19 04:56:36;;;;;;;0.30;0.30;;;20.80;57.80;;;;;;4116788;28;20063;-60
2023/05/19 04:58:58;;;;;;;0.40;0.30;;;20.80;57.60;;;;;;4122023;28;20037;-61
2023/05/19 05:01:24;;;;;;;0.30;0.30;;;20.90;57.60;;;;;;4104005;28;20039;-57
2023/05/19 05:03:47;;;;;;;0.30;0.30;;;20.90;57.40;;;;;;4106834;28;20050;-58
2023/05/19 05:06:10;;;;;;;0.40;0.40;;;21.00;57.40;;;;;;4103377;28;20494;-60
2023/05/19 05:08:32;;;;;;;0.30;0.30;;;21.00;57.30;;;;;;4118938;28;20053;-60
2023/05/19 05:10:55;;;;;;;0.22;0.20;;;21.10;57.30;;;;;;4117510;28;20285;-60
2023/05/19 05:13:23;;;;;;;0.30;0.30;;;21.10;57.20;;;;;;4104527;28;20050;-58
2023/05/19 05:15:45;;;;;;;0.50;0.43;;;21.10;57.20;;;;;;4119378;28;20043;-59
2023/05/19 05:18:08;;;;;;;0.35;0.32;;;21.10;57.00;;;;;;4124276;28;20066;-59
2023/05/19 05:20:31;;;;;;;0.90;0.25;;;21.20;57.20;;;;;;4125774;28;20042;-59
2023/05/19 05:22:54;;;;;;;0.30;0.30;;;21.20;57.10;;;;;;4117881;28;20057;-58
2023/05/19 05:25:17;;;;;;;0.30;0.30;;;21.20;57.20;;;;;;4104680;28;20546;-60
2023/05/19 05:27:40;;;;;;;0.30;0.30;;;21.20;57.20;;;;;;4117404;28;20042;-60
2023/05/19 05:30:02;;;;;;;0.82;0.30;;;21.20;57.20;;;;;;4125014;28;20038;-59
2023/05/19 05:32:25;;;;;;;0.20;0.20;;;21.20;57.80;;;;;;4114178;28;20065;-61
2023/05/19 05:34:47;;;;;;;0.40;0.40;;;21.20;57.10;;;;;;4101791;28;20055;-60
2023/05/19 05:37:10;;;;;;;0.10;0.10;;;21.20;57.10;;;;;;4110251;28;20047;-60
2023/05/19 05:39:32;;;;;;;0.77;0.35;;;21.20;57.20;;;;;;4086576;28;20047;-58
2023/05/19 05:41:55;;;;;;;0.30;0.30;;;21.20;57.10;;;;;;4105491;28;20039;-59
2023/05/19 05:44:17;;;;;;;1.08;0.38;;;21.20;57.30;;;;;;4105786;28;20043;-57
2023/05/19 05:46:40;;;;;;;0.20;0.20;;;21.20;57.20;;;;;;4098666;28;20093;-58
2023/05/19 05:49:03;;;;;;;0.22;0.22;;;21.10;57.10;;;;;;4106864;28;20035;-58
2023/05/19 05:51:25;;;;;;;0.47;0.30;;;21.10;57.20;;;;;;4104692;28;20039;-53
2023/05/19 05:53:52;;;;;;;0.20;0.20;;;21.10;57.30;;;;;;4099302;28;20134;-58
2023/05/19 05:56:16;;;;;;;0.65;0.30;;;21.10;57.50;;;;;;4106368;28;20039;-57
2023/05/19 05:58:39;;;;;;;0.77;0.50;;;21.00;57.50;;;;;;4102995;28;20038;-57
2023/05/19 06:01:01;;;;;;;1.25;0.57;;;21.00;57.60;;;;;;4105735;28;20343;-56
2023/05/19 06:03:25;;;;;;;2.83;0.75;;;21.00;57.80;;;;;;4087147;28;20114;-57
2023/05/19 06:05:48;;;;;;;5.35;0.57;;;21.00;58.00;;;;;;4098738;28;20050;-61
2023/05/19 06:08:10;;;;;;;3.13;0.45;;;20.90;58.30;;;;;;4103126;28;20049;-60
2023/05/19 06:10:34;;;;;;;0.90;0.40;;;20.90;58.40;;;;;;4099067;28;20446;-50
2023/05/19 06:12:56;;;;;;;1.42;0.32;;;20.90;58.60;;;;;;4102684;28;20041;-57
2023/05/19 06:15:19;;;;;;;1.15;0.40;;;20.80;58.60;;;;;;4103181;28;20039;-58
2023/05/19 06:17:41;;;;;;;0.20;0.20;;;20.80;58.70;;;;;;4106931;28;20051;-58
2023/05/19 06:20:13;;;;;;;0.30;0.30;;;20.90;58.60;;;;;;4107652;28;20253;-59
2023/05/19 06:22:36;;;;;;;2.30;0.50;;;20.90;58.60;;;;;;4102865;28;20050;-59
2023/05/19 06:24:58;;;;;;;1.23;0.40;;;21.00;58.40;;;;;;4099587;28;20495;-59
2023/05/19 06:27:21;;;;;;;0.40;0.40;;;21.10;58.80;;;;;;4100458;28;20047;-59
2023/05/19 06:29:43;;;;;;;1.02;0.50;;;21.20;59.20;;;;;;4100262;28;20100;-58
2023/05/19 06:32:05;;;;;;;1.10;0.40;;;21.40;59.90;;;;;;4118191;28;20062;-58
2023/05/19 06:34:28;;;;;;;1.55;0.40;;;22.00;56.40;;;;;;4123520;28;20053;-55
2023/05/19 06:36:50;;;;;;;0.30;0.30;;;22.30;56.80;;;;;;4120440;28;20098;-59
2023/05/19 06:39:13;;;;;;;1.20;0.43;;;22.20;55.70;;;;;;4114799;28;20042;-58
2023/05/19 06:41:35;;;;;;;3.25;0.57;;;22.00;55.30;;;;;;4115036;28;20036;-57
2023/05/19 06:44:00;;;;;;;0.40;0.40;;;21.80;55.30;;;;;;4115060;28;20055;-58
2023/05/19 06:46:22;;;;;;;0.73;0.47;;;21.80;55.40;;;;;;4116478;28;20043;-59
2023/05/19 06:48:45;;;;;;;1.52;0.32;;;21.70;55.40;;;;;;4116534;28;20038;-56
2023/05/19 06:51:09;;;;;;;0.55;0.30;;;21.50;56.10;;;;;;4118212;28;20047;-60
2023/05/19 06:53:30;;;;;;;;;;;21.30;56.90;;;;;;4119090;28;20050;-59
2023/05/19 06:55:53;;;;;;;2.33;0.45;;;21.10;57.70;;;;;;4114723;28;19910;-59
2023/05/19 06:58:16;;;;;;;2.15;0.40;;;20.90;58.30;;;;;;4123310;28;20031;-55
2023/05/19 07:00:38;;;;;;;2.00;0.30;;;20.80;58.60;;;;;;4114857;28;20507;-56
2023/05/19 07:03:01;;;;;;;2.95;0.68;;;20.70;58.80;;;;;;4115039;28;20064;-59
2023/05/19 07:05:23;;;;;;;0.50;0.30;;;20.70;59.00;;;;;;4115405;28;20137;-57
2023/05/19 07:07:45;;;;;;;0.60;0.40;;;20.60;59.20;;;;;;4097098;28;20062;-55
2023/05/19 07:10:08;;;;;;;3.00;0.68;;;20.50;58.90;;;;;;4122388;28;20043;-54
2023/05/19 07:12:31;;;;;;;1.70;0.40;;;20.50;58.90;;;;;;4118253;28;22362;-58
2023/05/19 07:14:53;;;;;;;1.33;0.40;;;20.40;59.00;;;;;;4126084;28;20038;-57
2023/05/19 07:17:16;;;;;;;1.45;0.40;;;20.40;59.60;;;;;;4118174;28;20041;-58
2023/05/19 07:19:38;;;;;;;0.47;0.45;;;20.40;59.20;;;;;;4122425;28;20082;-55
2023/05/19 07:22:00;;;;;;;1.95;0.50;;;20.30;59.20;;;;;;4117170;28;20545;-56
2023/05/19 07:24:23;;;;;;;1.45;0.52;;;20.20;59.40;;;;;;4118543;28;20035;-57
2023/05/19 07:26:46;;;;;;;1.23;0.52;;;20.20;59.50;;;;;;4122810;28;20077;-57
2023/05/19 07:29:08;;;;;;;2.30;0.63;;;20.20;59.60;;;;;;4113085;28;20042;-48
2023/05/19 07:31:31;;;;;;;1.33;0.50;;;20.10;59.60;;;;;;4117999;28;20531;-58
2023/05/19 07:33:53;;;;;;;0.60;0.60;;;20.10;59.60;;;;;;4120988;28;20490;-59
2023/05/19 07:36:16;;;;;;;1.88;0.80;;;20.10;59.70;;;;;;4116021;28;20042;-58
2023/05/19 07:38:38;;;;;;;0.70;0.70;;;20.00;59.90;;;;;;4113333;28;20038;-59
2023/05/19 07:41:01;;;;;;;2.10;0.90;;;20.00;60.10;;;;;;4128403;28;20088;-54
2023/05/19 07:43:24;;;;;;;5.00;1.80;;;20.00;60.30;;;;;;4112257;28;20058;-53
2023/05/19 07:45:46;;;;;;;4.40;2.00;;;20.00;60.30;;;;;;4118186;28;20403;-56
2023/05/19 07:48:09;;;;;;;5.03;2.20;;;20.60;59.20;;;;;;4120852;28;20049;-59
2023/05/19 07:50:32;;;;;;;4.25;2.20;;;21.30;57.30;;;;;;4115077;28;20494;-57
2023/05/19 07:52:55;;;;;;;7.27;2.00;;;22.00;55.50;;;;;;4116172;28;20457;-53
2023/05/19 07:55:18;;;;;;;4.55;1.92;;;22.70;54.50;;;;;;4119666;28;20030;-53
2023/05/19 07:57:40;;;;;;;3.92;1.98;;;23.30;53.50;;;;;;4116565;28;20093;-58
2023/05/19 08:00:06;;;;;;;4.30;1.70;;;23.40;53.10;;;;;;4118158;28;20144;-58
2023/05/19 08:02:28;;;;;;;2.47;1.30;;;23.10;53.40;;;;;;4114604;28;20045;-57
2023/05/19 08:04:51;;;;;;;2.17;1.27;;;22.80;54.10;;;;;;4121511;28;20072;-57
2023/05/19 08:07:14;;;;;;;3.72;1.60;;;22.40;54.80;;;;;;4106559;28;20043;-58
2023/05/19 08:09:36;;;;;;;3.60;1.30;;;22.20;55.30;;;;;;4113711;28;20485;-59
2023/05/19 08:12:00;;;;;;;2.35;1.20;;;22.00;55.80;;;;;;4116744;28;20085;-59
2023/05/19 08:14:22;;;;;;;1.63;1.15;;;21.80;56.30;;;;;;4101126;28;20069;-60
2023/05/19 08:16:45;;;;;;;3.63;1.23;;;21.70;56.60;;;;;;4104444;28;20494;-57
2023/05/19 08:19:08;;;;;;;1.65;0.98;;;21.60;57.00;;;;;;4117886;28;20026;-59
2023/05/19 08:21:33;;;;;;;2.63;1.00;;;21.40;57.40;;;;;;4116049;28;20050;-57
2023/05/19 08:23:56;;;;;;;3.63;1.05;;;21.40;57.60;;;;;;4114750;28;20157;-58
2023/05/19 08:26:18;;;;;;;2.00;1.00;;;21.30;57.80;;;;;;4117628;28;20073;-59
2023/05/19 08:28:41;;;;;;;1.33;0.85;;;21.20;57.80;;;;;;4122299;28;20050;-57
2023/05/19 08:31:03;;;;;;;1.63;1.17;;;21.10;58.10;;;;;;4118506;28;20037;-58
2023/05/19 08:33:26;;;;;;;2.10;0.80;;;21.00;58.40;;;;;;4114577;28;20073;-58
2023/05/19 08:35:48;;;;;;;2.20;0.90;;;21.00;58.50;;;;;;4118407;28;20110;-58
2023/05/19 08:38:11;;;;;;;1.88;0.80;;;21.00;58.60;;;;;;4112414;28;20074;-52
2023/05/19 08:40:36;;;;;;;4.72;0.90;;;20.90;58.50;;;;;;4108621;28;20051;-58
2023/05/19 08:42:59;;;;;;;2.65;0.80;;;20.80;58.80;;;;;;4111028;28;20070;-56
2023/05/19 08:45:21;;;;;;;3.80;1.00;;;20.80;59.10;;;;;;4120444;28;20034;-54
2023/05/19 08:47:46;;;;;;;6.88;1.83;;;20.70;59.20;;;;;;4114848;28;20469;-54
2023/05/19 08:50:10;;;;;;;5.50;1.05;;;20.70;59.30;;;;;;4120230;28;20171;-57
2023/05/19 08:52:54;;;;;;;5.25;1.25;;;20.70;59.20;;;;;;4116471;28;20046;-51
2023/05/19 08:55:35;;;;;;;2.77;0.90;;;20.60;59.20;;;;;;4118422;28;20045;-58
2023/05/19 08:57:58;;;;;;;3.90;1.00;;;20.60;59.40;;;;;;4115068;28;20040;-54
2023/05/19 09:00:21;;;;;;;5.15;1.50;;;20.60;59.50;;;;;;4118805;28;20043;-58
2023/05/19 09:02:45;;;;;;;4.27;1.10;;;20.60;59.50;;;;;;4111187;28;20392;-52
2023/05/19 09:05:07;;;;;;;;;;;20.50;59.40;;;;;;4109671;28;20514;-54
2023/05/19 09:07:33;;;;;;;1.92;1.15;;;20.50;59.60;;;;;;4121838;28;19917;-58
2023/05/19 09:09:56;;;;;;;4.13;1.38;;;20.40;59.30;;;;;;4123922;28;20038;-57
2023/05/19 09:12:18;;;;;;;3.38;2.13;;;20.50;59.00;;;;;;4116273;28;20428;-57
2023/05/19 09:14:41;;;;;;;4.00;1.67;;;20.40;59.00;;;;;;4121117;28;20039;-48
2023/05/19 09:17:04;;;;;;;3.25;1.75;;;20.30;58.90;;;;;;4119381;28;20502;-48
2023/05/19 09:19:28;;;;;;;2.80;1.30;;;20.30;59.10;;;;;;4112435;28;20046;-51
2023/05/19 09:22:05;;;;;;;2.72;1.35;;;20.30;59.40;;;;;;4116364;28;20502;-53
2023/05/19 09:24:27;;;;;;;4.28;1.33;;;20.20;59.40;;;;;;4116704;28;20295;-52
2023/05/19 09:26:49;;;;;;;3.40;1.42;;;20.20;59.50;;;;;;4113409;28;20043;-48
2023/05/19 09:29:16;;;;;;;2.00;1.27;;;20.20;59.50;;;;;;4114792;28;20397;-50
2023/05/19 09:31:39;;;;;;;1.80;1.40;;;20.10;59.50;;;;;;4116720;28;20051;-50
2023/05/19 09:34:01;;;;;;;2.85;1.98;;;20.10;59.60;;;;;;4114057;28;20046;-50
2023/05/19 09:36:24;;;;;;;3.40;1.90;;;20.00;59.60;;;;;;4118211;28;20051;-49
2023/05/19 09:38:46;;;;;;;3.70;1.67;;;20.00;59.70;;;;;;4115379;28;20491;-50
2023/05/19 09:41:09;;;;;;;3.10;1.90;;;20.00;59.70;;;;;;4113595;28;20108;-51
2023/05/19 09:43:33;;;;;;;2.15;1.50;;;20.00;59.70;;;;;;4117233;28;20620;-52
2023/05/19 09:46:12;;;;;;;2.72;1.90;;;19.90;59.70;;;;;;4117373;28;20038;-50
2023/05/19 09:48:37;;;;;;;3.97;1.92;;;19.90;59.80;;;;;;4110876;28;20494;-54
2023/05/19 09:51:01;;;;;;;2.83;1.60;;;19.90;59.80;;;;;;4109904;28;20473;-51
2023/05/19 09:53:24;;;;;;;2.20;1.70;;;19.80;59.70;;;;;;4116067;28;20049;-53
2023/05/19 09:55:48;;;;;;;3.03;2.00;;;19.80;59.70;;;;;;4110901;28;20133;-51
2023/05/19 09:58:17;;;;;;;2.72;1.55;;;19.80;59.90;;;;;;4112735;28;20047;-54
2023/05/19 10:00:40;;;;;;;4.22;1.73;;;19.80;59.80;;;;;;4110861;28;20429;-51
2023/05/19 10:03:04;;;;;;;3.13;2.08;;;19.70;59.80;;;;;;4111580;28;20039;-53
2023/05/19 10:05:28;;;;;;;2.58;1.65;;;19.70;59.80;;;;;;4106253;28;20490;-53
2023/05/19 10:07:53;;;;;;;3.30;2.00;;;19.60;59.80;;;;;;4111417;28;20663;-52
2023/05/19 10:10:16;;;;;;;4.38;2.20;;;19.60;59.80;;;;;;4111199;28;20315;-52
2023/05/19 10:12:39;;;;;;;2.15;1.60;;;19.60;60.00;;;;;;4114675;28;20727;-50
2023/05/19 10:15:03;;;;;;;3.53;2.10;;;19.60;59.80;;;;;;4111970;28;20062;-52
2023/05/19 10:17:29;;;;;;;3.63;2.10;;;19.50;59.80;;;;;;4112241;28;20129;-50
2023/05/19 10:19:53;;;;;;;2.53;1.80;;;19.50;59.90;;;;;;4113476;28;20038;-57
2023/05/19 10:22:16;;;;;;;3.28;1.60;;;19.40;59.90;;;;;;4115377;28;20482;-53
2023/05/19 10:24:55;;;;;;;2.85;2.00;;;19.40;59.90;;;;;;4108447;28;20039;-55
2023/05/19 10:27:18;;;;;;;4.38;1.90;;;19.40;60.00;;;;;;4112773;28;20053;-52
2023/05/19 10:29:47;;;;;;;2.78;1.90;;;19.40;60.20;;;;;;4113414;28;20108;-56
2023/05/19 10:32:17;;;;;;;2.53;1.88;;;19.40;60.10;;;;;;4110418;28;20100;-49
2023/05/19 10:34:59;;;;;;;3.10;2.00;;;19.30;60.00;;;;;;4110537;28;20042;-48
2023/05/19 10:37:40;;;;;;;3.42;2.15;;;19.30;60.10;;;;;;4116658;28;20103;-52
2023/05/19 10:40:19;;;;;;;4.05;2.20;;;19.30;60.20;;;;;;4110018;28;20130;-52
2023/05/19 10:43:03;;;;;;;5.32;2.70;;;19.20;60.20;;;;;;4108434;28;20043;-58
2023/05/19 10:45:30;;;;;;;5.07;3.15;;;19.20;60.40;;;;;;4115799;28;20118;-58
2023/05/19 10:47:53;;;;;;;4.68;3.13;;;19.20;60.30;;;;;;4111347;28;20046;-56
2023/05/19 10:50:16;;;;;;;5.40;3.17;;;19.10;60.20;;;;;;4112759;28;20096;-55
2023/05/19 10:52:39;;;;;;;6.25;4.07;;;19.10;60.30;;;;;;4114128;28;20537;-52
2023/05/19 10:55:03;;;;;;;5.50;3.80;;;19.10;60.30;;;;;;4112420;28;20038;-55
2023/05/19 10:57:31;;;;;;;6.25;4.88;;;19.10;60.40;;;;;;4111468;28;20060;-56
2023/05/19 10:59:56;;;;;;;6.93;4.60;;;19.10;60.40;;;;;;4107342;28;20474;-55
2023/05/19 11:02:44;;;;;;;7.43;4.60;;;19.00;60.40;;;;;;4111742;28;20045;-56
2023/05/19 11:05:13;;;;;;;7.22;5.15;;;19.00;60.50;;;;;;4119564;28;20039;-56
2023/05/19 11:07:35;;;;;;;7.28;5.03;;;19.00;60.40;;;;;;4096234;28;20099;-55
2023/05/19 11:09:58;;;;;;;6.38;4.55;;;18.90;60.40;;;;;;4113488;28;20092;-57
2023/05/19 11:12:24;;;;;;;6.80;5.47;;;18.90;60.80;;;;;;4111972;28;20118;-56
2023/05/19 11:14:47;;;;;;;6.72;4.70;;;18.90;60.90;;;;;;4115452;28;20089;-54
2023/05/19 11:17:15;;;;;;;6.30;4.75;;;18.90;61.00;;;;;;4112458;28;20453;-49
2023/05/19 11:19:39;;;;;;;6.95;4.82;;;18.90;61.00;;;;;;4116060;28;20414;-51
2023/05/19 11:22:12;;;;;;;6.50;5.20;;;18.80;60.90;;;;;;4101918;28;20031;-50
2023/05/19 11:24:45;;;;;;;6.57;4.95;;;18.80;60.90;;;;;;4108752;28;20038;-54
2023/05/19 11:27:26;;;;;;;7.00;5.05;;;18.80;61.00;;;;;;4112667;28;20494;-51
2023/05/19 11:29:50;;;;;;;6.85;4.80;;;18.80;61.00;;;;;;4111982;28;20172;-50
2023/05/19 11:32:13;;;;;;;5.38;4.32;;;18.70;60.70;;;;;;4108644;28;20061;-55
2023/05/19 11:34:37;;;;;;;9.13;4.90;;;18.80;60.90;;;;;;4114261;28;20039;-50
2023/05/19 11:37:00;;;;;;;6.25;4.63;;;18.70;60.80;;;;;;4109796;28;20046;-51
2023/05/19 11:39:23;;;;;;;7.13;4.83;;;18.70;60.90;;;;;;4110604;28;20038;-49
2023/05/19 11:41:46;;;;;;;6.53;4.67;;;18.70;61.00;;;;;;4108145;28;20047;-49
2023/05/19 11:44:11;;;;;;;5.25;3.88;;;18.60;60.80;;;;;;4104915;28;20096;-51
2023/05/19 11:46:34;;;;;;;4.88;3.75;;;18.60;61.20;;;;;;4096319;28;20050;-53
2023/05/19 11:48:57;;;;;;;5.20;3.85;;;18.60;61.20;;;;;;4116996;28;20045;-54
2023/05/19 11:51:21;;;;;;;5.88;4.03;;;18.60;61.20;;;;;;4098535;28;20182;-50
2023/05/19 11:53:44;;;;;;;5.40;3.85;;;18.60;61.30;;;;;;4124019;28;20480;-54
2023/05/19 11:56:07;;;;;;;5.47;3.90;;;18.60;61.30;;;;;;4118235;28;20034;-52
2023/05/19 11:58:29;;;;;;;5.80;3.80;;;18.50;61.20;;;;;;4119488;28;20171;-47
2023/05/19 12:00:52;;;;;;;5.15;3.53;;;18.50;61.30;;;;;;4115857;28;20422;-52
2023/05/19 12:03:20;;;;;;;4.93;3.53;;;18.50;61.40;;;;;;4117625;28;20513;-49
2023/05/19 12:05:47;;;;;;;4.50;3.40;;;18.50;61.40;;;;;;4117381;28;20343;-45
2023/05/19 12:08:13;;;;;;;5.88;3.60;;;18.40;61.40;;;;;;4112650;28;20046;-53
2023/05/19 12:10:39;;;;;;;6.57;3.60;;;18.40;61.40;;;;;;4115847;28;20038;-48
2023/05/19 12:13:02;;;;;;;5.28;3.30;;;18.40;61.30;;;;;;4114093;28;20039;-50
2023/05/19 12:15:25;;;;;;;5.65;3.22;;;18.40;61.30;;;;;;4122406;28;20049;-53
2023/05/19 12:17:58;;;;;;;7.88;3.20;;;18.40;61.40;;;;;;4123009;28;20406;-56
2023/05/19 12:20:22;;;;;;;5.03;3.40;;;18.40;61.50;;;;;;4099052;28;20384;-50
2023/05/19 12:22:45;;;;;;;5.55;3.25;;;18.40;61.50;;;;;;4123865;28;20490;-50
2023/05/19 12:25:08;;;;;;;4.78;3.20;;;18.30;61.40;;;;;;4124514;28;20034;-49
2023/05/19 12:27:34;;;;;;;5.20;3.17;;;18.30;61.30;;;;;;4124241;28;20144;-49
2023/05/19 12:29:56;;;;;;;3.78;2.85;;;18.30;61.50;;;;;;4119893;28;20038;-46
2023/05/19 12:32:24;;;;;;;3.97;2.70;;;18.30;61.70;;;;;;4123272;28;20046;-47
2023/05/19 12:34:46;;;;;;;3.88;2.85;;;18.30;61.70;;;;;;4122202;28;20097;-49